Benedict, Minnesota
Current Conditions -  °F | °C
As of 6:15 AM on Friday 31 Oct 2014 (Local Time) from KY49 Reporting Station
Scattered Clouds Scattered Clouds  
Wind Chill: 17°   Ceiling: Unl
Heat Index: 23°   Visibility: 10mi
Dew Point: 16°   Wind: 5mph
Humidity: 72%   Direction: 10°N
Pressure: 30.55"   Gusts: NA
Location:  47.16°N, 94.69°W
Report Text: KY49 311115Z AUTO 01004KT 10SM SCT024 M05/M09 A3055 RMK AO2 T10481091
Loading
Personal Weather Stations






























Interactive Weather Map
Tropical Storm Tracking
New forecast layout! Learn more

10-Day Weather Forecast

Advertisements
Track Severe Weather on mobile